Time;durP1;ratioP1;P1;durP2;ratioP2;P2;SDS_P1;SDS_P2;PMS_P1;PMS_P2;Temp;Humidity;BMP_temperature;BMP_pressure;BME280_temperature;BME280_humidity;BME280_pressure;Samples;Min_cycle;Max_cycle;Signal;HPM_P1;HPM_P2
2023/10/21 00:02:04;;;;;;;1.48;0.55;;;14.40;68.90;;;;;;5054862;28;20040;-80
2023/10/21 00:04:30;;;;;;;0.65;0.45;;;14.50;67.80;;;;;;5054828;28;20074;-79
2023/10/21 00:06:56;;;;;;;0.38;0.32;;;14.50;69.30;;;;;;5054517;28;20033;-71
2023/10/21 00:09:21;;;;;;;0.28;0.25;;;14.40;69.20;;;;;;5054827;28;20025;-75
2023/10/21 00:11:47;;;;;;;1.27;0.40;;;14.30;69.00;;;;;;5054664;28;20029;-72
2023/10/21 00:14:12;;;;;;;0.20;0.20;;;14.40;68.00;;;;;;5054763;28;20025;-72
2023/10/21 00:16:38;;;;;;;0.82;0.20;;;14.50;67.70;;;;;;5054708;28;20025;-71
2023/10/21 00:19:04;;;;;;;0.65;0.20;;;14.70;67.50;;;;;;5054403;28;20092;-77
2023/10/21 00:21:30;;;;;;;1.75;0.47;;;14.70;67.30;;;;;;5054174;28;20338;-72
2023/10/21 00:23:56;;;;;;;1.17;0.35;;;14.60;67.60;;;;;;5054276;28;20025;-73
2023/10/21 00:26:22;;;;;;;0.98;0.20;;;14.60;68.40;;;;;;5054288;28;20032;-79
2023/10/21 00:28:47;;;;;;;1.83;0.38;;;14.50;68.20;;;;;;5054462;28;20021;-78
2023/10/21 00:31:13;;;;;;;0.63;0.20;;;14.50;68.10;;;;;;5054223;28;20100;-79
2023/10/21 00:33:38;;;;;;;0.30;0.10;;;14.50;68.20;;;;;;5053976;28;20063;-79
2023/10/21 00:36:04;;;;;;;0.20;0.20;;;14.50;68.10;;;;;;5052991;28;20112;-78
2023/10/21 00:38:30;;;;;;;0.75;0.32;;;14.60;67.90;;;;;;5054191;28;20029;-79
2023/10/21 00:40:56;;;;;;;0.50;0.20;;;14.60;68.10;;;;;;5053970;28;20069;-81
2023/10/21 00:43:39;;;;;;;3.60;0.50;;;14.60;68.10;;;;;;5054438;28;20017;-79
2023/10/21 00:46:10;;;;;;;0.63;0.30;;;14.60;68.10;;;;;;5054084;28;20482;-79
2023/10/21 00:48:36;;;;;;;0.17;0.17;;;14.60;68.10;;;;;;5054107;28;20029;-72
2023/10/21 00:51:02;;;;;;;1.23;0.10;;;14.60;68.10;;;;;;5053709;28;20048;-71
2023/10/21 00:53:31;;;;;;;1.13;0.25;;;14.60;68.30;;;;;;5053749;28;20028;-72
2023/10/21 00:55:57;;;;;;;1.63;0.10;;;14.60;68.40;;;;;;5053868;28;20107;-72
2023/10/21 00:58:25;;;;;;;0.70;0.10;;;14.50;68.40;;;;;;5053464;28;20017;-72
2023/10/21 01:00:51;;;;;;;0.10;0.10;;;14.60;68.00;;;;;;5053673;28;20041;-72
2023/10/21 01:03:17;;;;;;;1.10;0.25;;;14.50;68.70;;;;;;5052803;28;20531;-73
2023/10/21 01:05:42;;;;;;;1.05;0.40;;;14.50;68.10;;;;;;5053330;28;20036;-74
2023/10/21 01:08:08;;;;;;;0.75;0.20;;;14.40;68.20;;;;;;5052373;28;20450;-78
2023/10/21 01:10:33;;;;;;;2.03;0.15;;;14.50;67.40;;;;;;5053385;28;20386;-79
2023/10/21 01:12:59;;;;;;;1.30;0.30;;;14.40;67.00;;;;;;5053535;28;20044;-79
2023/10/21 01:15:24;;;;;;;0.30;0.13;;;14.50;66.80;;;;;;5052359;28;20021;-78
2023/10/21 01:17:50;;;;;;;0.75;0.15;;;14.40;66.70;;;;;;5053614;28;20036;-78
2023/10/21 01:20:17;;;;;;;0.20;0.10;;;14.40;66.80;;;;;;5053097;28;20465;-80
2023/10/21 01:22:43;;;;;;;0.10;0.10;;;14.40;66.40;;;;;;5052210;28;20029;-79
2023/10/21 01:25:09;;;;;;;1.95;0.20;;;14.40;66.40;;;;;;5053995;28;20492;-79
2023/10/21 01:27:34;;;;;;;0.10;0.10;;;14.40;66.10;;;;;;5054371;28;20021;-77
2023/10/21 01:30:00;;;;;;;0.77;0.15;;;14.40;66.40;;;;;;5057004;28;20029;-78
2023/10/21 01:32:26;;;;;;;0.52;0.10;;;14.40;66.40;;;;;;5053423;28;20118;-78
2023/10/21 01:34:51;;;;;;;0.85;0.22;;;14.30;66.50;;;;;;5052989;28;20099;-78
2023/10/21 01:37:17;;;;;;;0.25;0.20;;;14.30;66.50;;;;;;5052154;28;20450;-78
2023/10/21 01:39:43;;;;;;;0.73;0.20;;;14.30;66.40;;;;;;5053061;28;20052;-79
2023/10/21 01:42:09;;;;;;;0.38;0.20;;;14.30;66.20;;;;;;5051759;28;20047;-73
2023/10/21 01:44:35;;;;;;;0.88;0.20;;;14.30;65.90;;;;;;5053160;28;20053;-80
2023/10/21 01:47:00;;;;;;;0.15;0.10;;;14.30;65.80;;;;;;5053247;28;20032;-73
2023/10/21 01:49:26;;;;;;;0.17;0.10;;;14.40;65.20;;;;;;5052976;28;20029;-74
2023/10/21 01:51:52;;;;;;;0.30;0.03;;;14.30;65.30;;;;;;5053377;28;20029;-72
2023/10/21 01:54:17;;;;;;;0.00;0.00;;;14.30;64.90;;;;;;5051729;28;20381;-72
2023/10/21 01:56:43;;;;;;;0.30;0.10;;;14.40;64.70;;;;;;5053064;28;20381;-72
2023/10/21 01:59:08;;;;;;;0.47;0.10;;;14.30;65.10;;;;;;5053246;28;20597;-75
2023/10/21 02:01:34;;;;;;;0.00;0.00;;;14.30;64.80;;;;;;5052839;28;20087;-75
2023/10/21 02:04:00;;;;;;;0.47;0.20;;;14.30;64.60;;;;;;5052940;28;20029;-75
2023/10/21 02:06:26;;;;;;;0.80;0.10;;;14.30;64.50;;;;;;5051775;28;20028;-77
2023/10/21 02:08:53;;;;;;;0.00;0.00;;;14.30;64.10;;;;;;5051492;28;20096;-73
2023/10/21 02:11:24;;;;;;;0.75;0.05;;;14.30;64.50;;;;;;5052914;28;20025;-77
2023/10/21 02:13:49;;;;;;;0.57;0.20;;;14.30;64.70;;;;;;5052806;28;20036;-77
2023/10/21 02:16:15;;;;;;;0.57;0.20;;;14.30;64.50;;;;;;5055817;28;20380;-77
2023/10/21 02:18:41;;;;;;;0.00;0.00;;;14.30;64.30;;;;;;5056742;28;20028;-74
2023/10/21 02:21:07;;;;;;;0.20;0.10;;;14.30;64.30;;;;;;5056655;28;20040;-78
2023/10/21 02:23:33;;;;;;;0.93;0.20;;;14.30;64.50;;;;;;5056697;28;20462;-76
2023/10/21 02:26:04;;;;;;;2.05;0.20;;;14.30;64.60;;;;;;5056504;28;20033;-75
2023/10/21 02:28:29;;;;;;;0.95;0.20;;;14.30;64.50;;;;;;5056634;28;20082;-82
2023/10/21 02:30:55;;;;;;;0.63;0.10;;;14.30;64.50;;;;;;5056710;28;20029;-82
2023/10/21 02:33:24;;;;;;;0.13;0.10;;;14.30;65.40;;;;;;5055574;28;20049;-80
2023/10/21 02:35:53;;;;;;;0.43;0.20;;;14.30;64.90;;;;;;5056713;28;20052;-79
2023/10/21 02:38:19;;;;;;;0.15;0.10;;;14.30;64.60;;;;;;5056340;28;20086;-82
2023/10/21 02:40:46;;;;;;;0.85;0.20;;;14.30;65.10;;;;;;5055553;28;20392;-82
2023/10/21 02:43:11;;;;;;;1.65;0.20;;;14.30;65.30;;;;;;5056729;28;20044;-82
2023/10/21 02:45:37;;;;;;;0.52;0.17;;;14.20;65.20;;;;;;5055257;28;20478;-82
2023/10/21 02:48:03;;;;;;;0.85;0.20;;;14.20;65.80;;;;;;5055404;28;20017;-79
2023/10/21 02:50:29;;;;;;;0.75;0.20;;;14.10;66.30;;;;;;5055359;28;20029;-82
2023/10/21 02:52:54;;;;;;;0.68;0.10;;;14.10;66.20;;;;;;5052512;28;20083;-82
2023/10/21 02:55:20;;;;;;;1.60;0.30;;;14.10;66.50;;;;;;5055136;28;20029;-82
2023/10/21 02:57:45;;;;;;;0.17;0.08;;;14.10;66.70;;;;;;5056421;28;20021;-83
2023/10/21 03:00:15;;;;;;;1.17;0.20;;;14.10;67.00;;;;;;5056718;28;20531;-82
2023/10/21 03:02:42;;;;;;;0.43;0.20;;;14.00;66.80;;;;;;5059505;28;20033;-81
2023/10/21 03:05:08;;;;;;;0.88;0.22;;;14.00;67.00;;;;;;5057038;28;20075;-74
2023/10/21 03:07:34;;;;;;;1.02;0.30;;;14.00;67.30;;;;;;5054958;28;20025;-82
2023/10/21 03:10:00;;;;;;;0.22;0.20;;;14.00;67.40;;;;;;5055067;28;20029;-82
2023/10/21 03:12:26;;;;;;;0.57;0.20;;;14.00;67.60;;;;;;5056189;28;20367;-82
2023/10/21 03:14:52;;;;;;;0.28;0.13;;;14.10;67.90;;;;;;5055789;28;20025;-82
2023/10/21 03:17:19;;;;;;;0.22;0.15;;;14.00;68.30;;;;;;5054797;28;20025;-80
2023/10/21 03:19:45;;;;;;;1.77;0.22;;;13.90;68.80;;;;;;5055590;28;20023;-82
2023/10/21 03:22:10;;;;;;;0.17;0.10;;;13.90;69.30;;;;;;5055647;28;20108;-81
2023/10/21 03:24:36;;;;;;;0.82;0.20;;;13.80;69.70;;;;;;5054644;28;20017;-81
2023/10/21 03:27:02;;;;;;;1.40;0.20;;;13.90;70.00;;;;;;5054750;28;20388;-79
2023/10/21 03:29:27;;;;;;;0.17;0.10;;;13.90;70.20;;;;;;5055652;28;20017;-82
2023/10/21 03:31:53;;;;;;;0.15;0.10;;;13.90;70.40;;;;;;5054219;28;20032;-78
2023/10/21 03:34:18;;;;;;;0.20;0.20;;;13.90;70.60;;;;;;5055118;28;20135;-74
2023/10/21 03:36:45;;;;;;;0.10;0.10;;;13.80;70.90;;;;;;5055131;28;20088;-73
2023/10/21 03:39:11;;;;;;;0.40;0.20;;;13.90;71.00;;;;;;5055053;28;20442;-73
2023/10/21 03:41:37;;;;;;;0.70;0.20;;;13.90;70.80;;;;;;5054902;28;20033;-72
2023/10/21 03:44:03;;;;;;;0.75;0.20;;;13.80;70.90;;;;;;5055028;28;20090;-73
2023/10/21 03:46:30;;;;;;;0.20;0.10;;;13.80;71.00;;;;;;5053636;28;20025;-72
2023/10/21 03:48:56;;;;;;;0.95;0.10;;;13.80;71.30;;;;;;5055025;28;20043;-81
2023/10/21 03:51:22;;;;;;;0.08;0.03;;;13.80;71.60;;;;;;5055089;28;20061;-82
2023/10/21 03:53:48;;;;;;;0.32;0.20;;;13.70;71.50;;;;;;5054836;28;20444;-82
2023/10/21 03:56:14;;;;;;;0.50;0.10;;;13.70;71.70;;;;;;5055133;28;20033;-82
2023/10/21 03:58:41;;;;;;;0.93;0.30;;;13.70;71.80;;;;;;5054799;28;20029;-73
2023/10/21 04:01:07;;;;;;;0.22;0.10;;;13.70;71.90;;;;;;5054459;28;20029;-74
2023/10/21 04:03:33;;;;;;;0.40;0.13;;;13.70;71.80;;;;;;5054384;28;20057;-74
2023/10/21 04:05:59;;;;;;;0.55;0.20;;;13.70;71.70;;;;;;5053919;28;20162;-73
2023/10/21 04:08:26;;;;;;;0.00;0.00;;;13.70;71.60;;;;;;5053173;28;20018;-72
2023/10/21 04:10:55;;;;;;;0.10;0.10;;;13.70;71.60;;;;;;5054573;28;20033;-74
2023/10/21 04:13:20;;;;;;;0.63;0.10;;;13.70;71.70;;;;;;5054386;28;20021;-72
2023/10/21 04:15:46;;;;;;;0.15;0.00;;;13.70;71.80;;;;;;5054454;28;20527;-73
2023/10/21 04:18:12;;;;;;;0.25;0.10;;;13.70;71.90;;;;;;5054694;28;20559;-75
2023/10/21 04:20:38;;;;;;;0.00;0.00;;;13.70;71.80;;;;;;5054962;28;20033;-77
2023/10/21 04:23:04;;;;;;;0.30;0.10;;;13.70;71.90;;;;;;5054524;28;20029;-80
2023/10/21 04:25:29;;;;;;;0.47;0.10;;;13.70;71.80;;;;;;5054442;28;20082;-75
2023/10/21 04:27:56;;;;;;;0.20;0.03;;;13.70;71.80;;;;;;5054186;28;20036;-79
2023/10/21 04:30:23;;;;;;;2.53;0.10;;;13.70;72.00;;;;;;5054206;28;20036;-76
2023/10/21 04:32:48;;;;;;;0.35;0.20;;;13.70;72.30;;;;;;5054336;28;20382;-75
2023/10/21 04:35:14;;;;;;;1.35;0.00;;;13.70;72.30;;;;;;5052854;28;20052;-77
2023/10/21 04:37:40;;;;;;;0.25;0.10;;;13.70;72.70;;;;;;5054128;28;20021;-77
2023/10/21 04:40:06;;;;;;;0.32;0.10;;;13.70;72.40;;;;;;5054188;28;20109;-79
2023/10/21 04:42:31;;;;;;;0.10;0.10;;;13.70;72.80;;;;;;5054365;28;20028;-77
2023/10/21 04:44:58;;;;;;;0.08;0.08;;;13.70;72.40;;;;;;5054209;28;20668;-79
2023/10/21 04:47:23;;;;;;;0.15;0.10;;;13.70;72.50;;;;;;5053982;28;20089;-78
2023/10/21 04:49:49;;;;;;;0.43;0.00;;;13.70;72.10;;;;;;5054330;28;20116;-78
2023/10/21 04:52:15;;;;;;;0.47;0.10;;;13.80;71.90;;;;;;5054352;28;20401;-80
2023/10/21 04:54:42;;;;;;;0.43;0.20;;;13.80;72.10;;;;;;5054362;28;20365;-81
2023/10/21 04:57:08;;;;;;;0.20;0.10;;;13.80;71.60;;;;;;5052802;28;20025;-78
2023/10/21 04:59:33;;;;;;;0.10;0.10;;;13.80;71.60;;;;;;5052786;28;20025;-76
2023/10/21 05:01:59;;;;;;;0.20;0.00;;;13.80;72.00;;;;;;5052574;28;20550;-80
2023/10/21 05:04:25;;;;;;;0.80;0.10;;;13.80;72.10;;;;;;5053987;28;20028;-80
2023/10/21 05:06:50;;;;;;;0.25;0.15;;;13.70;72.30;;;;;;5052867;28;20163;-80
2023/10/21 05:09:16;;;;;;;2.15;0.20;;;13.70;72.60;;;;;;5054195;28;20025;-80
2023/10/21 05:11:42;;;;;;;0.20;0.10;;;13.70;72.80;;;;;;5053950;28;20078;-80
2023/10/21 05:14:08;;;;;;;0.68;0.20;;;13.70;72.80;;;;;;5054258;28;20377;-80
2023/10/21 05:16:33;;;;;;;0.00;0.00;;;13.70;72.70;;;;;;5053591;28;20533;-79
2023/10/21 05:18:59;;;;;;;0.13;0.10;;;13.70;73.10;;;;;;5053916;28;20132;-73
2023/10/21 05:21:24;;;;;;;1.13;0.10;;;13.60;73.30;;;;;;5053050;28;20041;-72
2023/10/21 05:23:50;;;;;;;0.43;0.10;;;13.60;73.40;;;;;;5053318;28;20044;-75
2023/10/21 05:26:18;;;;;;;0.30;0.20;;;13.50;73.70;;;;;;5053537;28;20028;-77
2023/10/21 05:28:44;;;;;;;0.10;0.10;;;13.50;73.60;;;;;;5053440;28;20052;-75
2023/10/21 05:31:10;;;;;;;0.40;0.15;;;13.60;73.50;;;;;;5053352;28;20053;-75
2023/10/21 05:33:35;;;;;;;1.30;0.05;;;13.60;73.40;;;;;;5052994;28;20041;-76
2023/10/21 05:36:01;;;;;;;0.10;0.10;;;13.50;73.60;;;;;;5052429;28;20497;-78
2023/10/21 05:38:26;;;;;;;0.43;0.10;;;13.40;73.80;;;;;;5053284;28;20087;-73
2023/10/21 05:40:52;;;;;;;0.10;0.10;;;13.40;73.80;;;;;;5059966;28;20025;-77
2023/10/21 05:43:18;;;;;;;0.13;0.10;;;13.40;74.10;;;;;;5053203;28;20428;-74
2023/10/21 05:45:44;;;;;;;0.60;0.10;;;13.40;74.00;;;;;;5052703;28;20075;-75
2023/10/21 05:48:10;;;;;;;0.47;0.13;;;13.40;73.90;;;;;;5052010;28;20061;-76
2023/10/21 05:50:36;;;;;;;0.75;0.20;;;13.40;73.70;;;;;;5052455;28;20048;-77
2023/10/21 05:53:03;;;;;;;0.20;0.10;;;13.40;73.80;;;;;;5052985;28;20021;-78
2023/10/21 05:55:29;;;;;;;1.65;0.40;;;13.40;73.70;;;;;;5052949;28;20028;-78
2023/10/21 05:57:54;;;;;;;0.50;0.30;;;13.40;73.40;;;;;;5053098;28;20394;-77
2023/10/21 06:00:20;;;;;;;0.50;0.35;;;13.40;73.40;;;;;;5052943;28;20029;-75
2023/10/21 06:02:45;;;;;;;0.70;0.20;;;13.30;73.50;;;;;;5052306;28;20036;-78
2023/10/21 06:05:12;;;;;;;0.82;0.30;;;13.30;73.20;;;;;;5052246;28;20025;-76
2023/10/21 06:07:39;;;;;;;1.00;0.57;;;13.30;73.10;;;;;;5052786;28;20366;-78
2023/10/21 06:10:05;;;;;;;0.63;0.30;;;13.30;73.10;;;;;;5053046;28;20026;-75
2023/10/21 06:12:32;;;;;;;0.28;0.20;;;13.30;72.50;;;;;;5051540;28;20393;-77
2023/10/21 06:14:58;;;;;;;0.55;0.30;;;13.30;71.90;;;;;;5053212;28;20036;-79
2023/10/21 06:17:24;;;;;;;0.75;0.25;;;13.30;71.60;;;;;;5052856;28;20028;-76
2023/10/21 06:19:49;;;;;;;0.68;0.38;;;13.40;71.30;;;;;;5052727;28;20028;-74
2023/10/21 06:22:16;;;;;;;1.60;0.30;;;13.40;71.50;;;;;;5052743;28;20230;-78
2023/10/21 06:24:41;;;;;;;0.50;0.30;;;13.40;71.50;;;;;;5052858;28;20022;-74
2023/10/21 06:27:07;;;;;;;1.42;0.30;;;13.30;71.20;;;;;;5052706;28;20021;-75
2023/10/21 06:29:34;;;;;;;0.65;0.10;;;13.30;71.70;;;;;;5052708;28;20017;-75
2023/10/21 06:32:00;;;;;;;2.08;0.20;;;13.30;71.70;;;;;;5053050;28;20064;-74
2023/10/21 06:34:26;;;;;;;0.55;0.20;;;13.30;71.50;;;;;;5052789;28;20067;-77
2023/10/21 06:36:51;;;;;;;2.20;0.60;;;13.30;71.20;;;;;;5053895;28;20028;-76
2023/10/21 06:39:18;;;;;;;0.68;0.40;;;13.40;71.50;;;;;;5052360;28;20047;-77
2023/10/21 06:41:44;;;;;;;1.17;0.30;;;13.40;70.50;;;;;;5051758;28;20033;-77
2023/10/21 06:44:09;;;;;;;1.63;0.30;;;13.40;69.90;;;;;;5051699;28;20025;-74
2023/10/21 06:46:35;;;;;;;1.00;0.30;;;13.40;69.80;;;;;;5052899;28;20033;-75
2023/10/21 06:49:01;;;;;;;0.82;0.20;;;13.40;69.80;;;;;;5051157;28;20033;-74
2023/10/21 06:51:27;;;;;;;1.25;0.30;;;13.40;69.60;;;;;;5052517;28;20056;-77
2023/10/21 06:53:53;;;;;;;0.55;0.28;;;13.40;69.60;;;;;;5052311;28;20079;-78
2023/10/21 06:56:18;;;;;;;0.73;0.30;;;13.40;70.10;;;;;;5052692;28;20458;-76
2023/10/21 06:58:47;;;;;;;1.52;0.55;;;13.40;70.00;;;;;;5052374;28;20417;-75
2023/10/21 07:01:13;;;;;;;4.13;0.45;;;13.30;70.60;;;;;;5051879;28;20499;-76
2023/10/21 07:03:39;;;;;;;1.45;0.40;;;13.40;70.60;;;;;;5054863;28;20078;-77
2023/10/21 07:06:05;;;;;;;1.33;0.40;;;13.40;70.40;;;;;;5054708;28;20432;-77
2023/10/21 07:08:31;;;;;;;2.22;0.40;;;13.40;70.00;;;;;;5054528;28;20029;-76
2023/10/21 07:10:57;;;;;;;1.83;0.40;;;13.40;70.20;;;;;;5055914;28;20362;-79
2023/10/21 07:13:22;;;;;;;1.13;0.30;;;13.30;70.10;;;;;;5054553;28;20104;-77
2023/10/21 07:15:48;;;;;;;0.90;0.38;;;13.30;70.10;;;;;;5053632;28;20116;-76
2023/10/21 07:18:17;;;;;;;1.33;0.40;;;13.40;69.70;;;;;;5055694;28;20032;-76
2023/10/21 07:20:42;;;;;;;0.55;0.35;;;13.40;69.70;;;;;;5055718;28;20500;-75
2023/10/21 07:23:12;;;;;;;0.28;0.22;;;13.50;70.20;;;;;;5054316;28;20033;-76
2023/10/21 07:25:38;;;;;;;2.47;0.55;;;13.60;69.00;;;;;;5055416;28;20127;-76
2023/10/21 07:28:04;;;;;;;2.40;0.93;;;13.60;69.00;;;;;;5055196;28;20033;-76
2023/10/21 07:30:30;;;;;;;1.80;0.30;;;13.80;68.70;;;;;;5055537;28;20127;-78
2023/10/21 07:32:56;;;;;;;0.47;0.30;;;13.80;67.50;;;;;;5053706;28;20548;-78
2023/10/21 07:35:21;;;;;;;1.02;0.68;;;13.80;68.20;;;;;;5054075;28;20040;-77
2023/10/21 07:37:47;;;;;;;2.67;0.32;;;13.80;68.10;;;;;;5054159;28;20055;-76
2023/10/21 07:40:13;;;;;;;1.55;0.40;;;13.90;67.90;;;;;;5055109;28;20105;-75
2023/10/21 07:42:39;;;;;;;1.23;0.40;;;13.90;68.50;;;;;;5053774;28;20033;-73
2023/10/21 07:45:05;;;;;;;2.03;0.60;;;14.00;67.70;;;;;;5053934;28;20031;-77
2023/10/21 07:47:33;;;;;;;0.38;0.35;;;14.10;67.50;;;;;;5054051;28;20587;-74
2023/10/21 07:49:59;;;;;;;4.30;0.45;;;14.20;68.10;;;;;;5054981;28;20098;-76
2023/10/21 07:52:24;;;;;;;1.65;1.00;;;14.40;65.80;;;;;;5054840;28;20063;-76
2023/10/21 07:54:52;;;;;;;1.17;0.50;;;14.40;66.10;;;;;;5054891;28;20075;-75
2023/10/21 07:57:18;;;;;;;1.48;0.50;;;14.40;65.10;;;;;;5054374;28;20078;-75
2023/10/21 07:59:44;;;;;;;3.42;0.60;;;14.50;65.70;;;;;;5054581;28;20108;-77
2023/10/21 08:02:10;;;;;;;1.17;0.40;;;14.50;64.60;;;;;;5054922;28;20052;-76
2023/10/21 08:04:35;;;;;;;1.67;0.50;;;14.60;65.00;;;;;;5054557;28;20351;-76
2023/10/21 08:07:01;;;;;;;1.05;0.32;;;14.80;64.60;;;;;;5054208;28;20039;-75
2023/10/21 08:09:27;;;;;;;1.13;0.25;;;15.00;63.60;;;;;;5054374;28;20415;-75
2023/10/21 08:11:52;;;;;;;2.63;0.70;;;15.00;62.40;;;;;;5054477;28;20377;-76
2023/10/21 08:14:18;;;;;;;2.42;0.50;;;14.90;61.60;;;;;;5054068;28;20033;-76
2023/10/21 08:16:44;;;;;;;0.50;0.50;;;15.00;61.40;;;;;;5053791;28;20028;-76
2023/10/21 08:19:10;;;;;;;1.48;0.68;;;14.90;61.30;;;;;;5054276;28;20032;-78
2023/10/21 08:21:35;;;;;;;1.83;0.50;;;14.70;61.80;;;;;;5053906;28;20098;-77
2023/10/21 08:24:02;;;;;;;3.22;0.73;;;14.70;62.10;;;;;;5054195;28;20025;-78
2023/10/21 08:26:29;;;;;;;1.52;0.40;;;14.60;62.90;;;;;;5052927;28;20481;-77
2023/10/21 08:28:55;;;;;;;2.35;0.55;;;14.60;63.00;;;;;;5053198;28;20469;-78
2023/10/21 08:31:22;;;;;;;0.98;0.38;;;14.40;60.50;;;;;;5053778;28;20380;-77
2023/10/21 08:33:48;;;;;;;0.98;0.40;;;14.30;61.40;;;;;;5053823;28;20119;-78
2023/10/21 08:36:22;;;;;;;2.90;0.40;;;14.40;61.30;;;;;;5053607;28;20150;-76
2023/10/21 08:38:48;;;;;;;1.77;0.40;;;14.40;61.80;;;;;;5054083;28;20181;-74
2023/10/21 08:41:14;;;;;;;1.15;0.52;;;14.40;62.20;;;;;;5053643;28;20480;-76
2023/10/21 08:43:47;;;;;;;1.17;0.40;;;14.40;62.30;;;;;;5052541;28;20102;-75
2023/10/21 08:46:17;;;;;;;1.67;0.40;;;14.50;62.30;;;;;;5052625;28;20025;-75
2023/10/21 08:48:45;;;;;;;3.35;0.40;;;14.60;62.30;;;;;;5053737;28;20052;-74
2023/10/21 08:51:18;;;;;;;2.80;0.57;;;14.60;62.50;;;;;;5053614;28;20021;-74
2023/10/21 08:53:46;;;;;;;2.03;0.50;;;14.60;62.30;;;;;;5053635;28;20025;-74
2023/10/21 08:56:12;;;;;;;5.43;0.63;;;14.70;62.20;;;;;;5053690;28;20474;-74
2023/10/21 08:58:38;;;;;;;3.20;0.75;;;14.60;62.80;;;;;;5053609;28;20573;-74
2023/10/21 09:01:05;;;;;;;1.65;0.60;;;14.60;62.20;;;;;;5053416;28;20049;-74
2023/10/21 09:03:32;;;;;;;2.13;0.60;;;14.50;62.80;;;;;;5052319;28;20025;-73
2023/10/21 09:06:06;;;;;;;3.13;0.75;;;14.70;62.40;;;;;;5053208;28;20382;-73
2023/10/21 09:08:34;;;;;;;1.15;0.35;;;14.80;63.30;;;;;;5053439;28;20362;-74
2023/10/21 09:11:00;;;;;;;3.10;0.70;;;14.60;61.80;;;;;;5053570;28;20060;-73
2023/10/21 09:13:30;;;;;;;1.17;0.50;;;14.60;61.70;;;;;;5053245;28;20049;-74
2023/10/21 09:15:55;;;;;;;2.50;0.80;;;14.50;61.50;;;;;;5052763;28;20386;-75
2023/10/21 09:18:23;;;;;;;2.72;1.05;;;14.60;62.00;;;;;;5052446;28;20075;-73
2023/10/21 09:20:51;;;;;;;3.88;1.10;;;14.70;62.50;;;;;;5052394;28;20423;-75
2023/10/21 09:23:17;;;;;;;1.48;0.63;;;15.00;61.00;;;;;;5053785;28;20491;-76
2023/10/21 09:25:50;;;;;;;2.97;1.50;;;15.20;59.60;;;;;;5051506;28;20029;-75
2023/10/21 09:28:24;;;;;;;4.07;2.15;;;15.50;59.60;;;;;;5052630;28;20105;-75
2023/10/21 09:31:01;;;;;;;4.88;2.50;;;15.70;60.20;;;;;;5052016;28;20025;-75
2023/10/21 09:33:28;;;;;;;6.15;1.20;;;16.00;58.10;;;;;;5052209;28;20048;-74
2023/10/21 09:36:04;;;;;;;1.65;0.82;;;16.10;56.10;;;;;;5051858;28;20052;-74
2023/10/21 09:38:37;;;;;;;2.38;1.30;;;16.40;55.60;;;;;;5051976;28;20036;-74
2023/10/21 09:41:09;;;;;;;3.13;1.45;;;16.60;54.90;;;;;;5051967;28;20123;-75
2023/10/21 09:43:40;;;;;;;2.83;1.08;;;16.60;55.10;;;;;;5052275;28;20025;-74
2023/10/21 09:46:10;;;;;;;3.92;1.10;;;16.60;53.80;;;;;;5052044;28;20025;-74
2023/10/21 09:48:41;;;;;;;2.75;1.30;;;16.70;53.40;;;;;;5052132;28;20032;-74
2023/10/21 09:51:11;;;;;;;3.58;1.70;;;16.70;54.00;;;;;;5051675;28;20021;-73
2023/10/21 09:53:44;;;;;;;2.38;0.90;;;16.70;55.00;;;;;;5053013;28;20029;-73
2023/10/21 09:56:14;;;;;;;2.08;0.93;;;16.70;54.30;;;;;;5052633;28;20477;-74
2023/10/21 09:58:41;;;;;;;2.08;0.57;;;16.70;55.80;;;;;;5051545;28;20060;-74
2023/10/21 10:01:10;;;;;;;1.30;0.50;;;16.60;55.00;;;;;;5052604;28;20032;-75
2023/10/21 10:03:36;;;;;;;1.85;0.60;;;16.50;52.80;;;;;;5053045;28;20036;-75
2023/10/21 10:06:04;;;;;;;0.95;0.20;;;16.60;51.70;;;;;;5052262;28;20374;-73
2023/10/21 10:08:33;;;;;;;2.40;0.70;;;16.70;51.80;;;;;;5052409;28;20027;-75
2023/10/21 10:11:08;;;;;;;1.92;0.50;;;16.50;51.10;;;;;;5051772;28;20108;-73
2023/10/21 10:13:37;;;;;;;2.47;0.55;;;16.40;51.90;;;;;;5052618;28;20036;-73
2023/10/21 10:16:23;;;;;;;2.72;0.30;;;16.50;51.40;;;;;;5054206;28;20033;-73
2023/10/21 10:18:50;;;;;;;1.42;0.40;;;16.50;50.50;;;;;;5054235;28;20439;-74
2023/10/21 10:21:17;;;;;;;1.08;0.40;;;16.30;52.10;;;;;;5051089;28;20058;-75
2023/10/21 10:23:51;;;;;;;1.10;0.30;;;16.20;52.30;;;;;;5052410;28;20018;-75
2023/10/21 10:26:38;;;;;;;1.48;0.35;;;16.20;51.20;;;;;;5051347;28;20035;-73
2023/10/21 10:29:18;;;;;;;2.53;0.50;;;16.00;52.10;;;;;;5052480;28;20373;-74
2023/10/21 10:31:45;;;;;;;3.05;0.80;;;16.20;52.70;;;;;;5052685;28;20059;-74
2023/10/21 10:34:11;;;;;;;1.15;0.52;;;16.50;52.80;;;;;;5052012;28;20045;-74
2023/10/21 10:36:36;;;;;;;2.47;0.70;;;16.60;52.10;;;;;;5054060;28;20092;-74
2023/10/21 10:39:04;;;;;;;1.50;0.45;;;16.70;51.00;;;;;;5055982;28;20071;-74
2023/10/21 10:41:31;;;;;;;1.23;0.40;;;16.70;50.90;;;;;;5056447;28;20583;-75
2023/10/21 10:44:03;;;;;;;1.55;0.57;;;16.40;52.30;;;;;;5055436;28;20048;-74
2023/10/21 10:46:31;;;;;;;0.70;0.55;;;16.80;51.10;;;;;;5054956;28;20060;-74
2023/10/21 10:49:05;;;;;;;1.00;0.50;;;16.70;51.80;;;;;;5056430;28;20021;-75
2023/10/21 10:51:43;;;;;;;1.13;0.35;;;16.80;52.00;;;;;;5056093;28;20021;-75
2023/10/21 10:54:12;;;;;;;1.02;0.43;;;16.90;52.00;;;;;;5055958;28;20366;-76
2023/10/21 10:56:49;;;;;;;0.93;0.40;;;16.80;52.10;;;;;;5054842;28;20025;-74
2023/10/21 10:59:19;;;;;;;4.03;0.52;;;16.90;51.90;;;;;;5055100;28;20025;-75
2023/10/21 11:01:55;;;;;;;0.82;0.20;;;16.90;51.70;;;;;;5054468;28;20095;-74
2023/10/21 11:04:21;;;;;;;0.75;0.30;;;16.80;51.50;;;;;;5055625;28;20024;-75
2023/10/21 11:06:46;;;;;;;2.10;0.40;;;16.70;53.10;;;;;;5055696;28;20032;-74
2023/10/21 11:09:19;;;;;;;1.63;0.60;;;16.40;51.10;;;;;;5055476;28;20461;-74
2023/10/21 11:11:45;;;;;;;1.55;0.50;;;16.30;52.10;;;;;;5055042;28;20106;-73
2023/10/21 11:14:14;;;;;;;1.20;0.60;;;16.20;54.20;;;;;;5055575;28;20060;-75
2023/10/21 11:16:40;;;;;;;1.67;0.50;;;16.30;55.70;;;;;;5055558;28;20032;-75
2023/10/21 11:19:06;;;;;;;0.98;0.38;;;16.50;53.90;;;;;;5054983;28;20025;-74
2023/10/21 11:21:41;;;;;;;0.82;0.30;;;16.40;53.10;;;;;;5055060;28;20374;-75
2023/10/21 11:24:08;;;;;;;1.50;0.50;;;16.40;52.30;;;;;;5055485;28;20017;-76
2023/10/21 11:26:35;;;;;;;2.10;0.57;;;16.30;51.90;;;;;;5055521;28;20032;-75
2023/10/21 11:29:05;;;;;;;0.88;0.40;;;16.30;51.60;;;;;;5055145;28;20032;-75
2023/10/21 11:31:31;;;;;;;1.17;0.40;;;16.10;51.10;;;;;;5054978;28;20033;-74
2023/10/21 11:34:27;;;;;;;0.65;0.28;;;15.90;52.60;;;;;;5055071;28;20095;-75
2023/10/21 11:36:55;;;;;;;;;;;15.80;52.10;;;;;;5041978;28;20087;-75
2023/10/21 11:39:21;;;;;;;1.90;0.50;;;16.10;50.80;;;;;;5055125;28;19951;-74
2023/10/21 11:41:52;;;;;;;0.73;0.30;;;16.50;50.40;;;;;;5054998;28;20045;-74
2023/10/21 11:44:28;;;;;;;1.80;0.50;;;16.70;50.20;;;;;;5054986;28;20489;-74
2023/10/21 11:46:57;;;;;;;0.95;0.32;;;17.00;48.90;;;;;;5055093;28;20079;-75
2023/10/21 11:49:25;;;;;;;1.58;0.45;;;16.90;49.40;;;;;;5053823;28;20025;-74
2023/10/21 11:51:52;;;;;;;1.58;0.40;;;17.10;49.80;;;;;;5054680;28;20473;-72
2023/10/21 11:54:33;;;;;;;1.17;0.35;;;17.40;47.50;;;;;;5055071;28;20025;-73
2023/10/21 12:13:30;;;;;;;2.22;0.40;;;17.60;47.70;;;;;;5054603;28;20025;-75
2023/10/21 12:24:45;;;;;;;1.88;0.68;;;17.10;49.80;;;;;;5054627;28;20489;-73
2023/10/21 12:43:18;;;;;;;3.05;0.57;;;16.30;52.80;;;;;;5054015;28;20585;-75
2023/10/21 12:45:40;;;;;;;;;;;16.40;52.10;;;;;;5054330;28;20029;-75
2023/10/21 12:48:08;;;;;;;0.40;0.30;;;16.20;53.00;;;;;;5069214;28;19911;-75
2023/10/21 12:50:34;;;;;;;0.80;0.30;;;16.20;51.60;;;;;;5052248;28;20031;-73
2023/10/21 12:53:03;;;;;;;2.97;0.60;;;16.40;51.50;;;;;;5052601;28;20108;-75
2023/10/21 12:55:28;;;;;;;1.55;0.43;;;16.40;51.50;;;;;;5052606;28;20035;-75
2023/10/21 12:57:54;;;;;;;1.48;0.90;;;16.30;51.90;;;;;;5053764;28;20392;-74
2023/10/21 13:00:21;;;;;;;1.48;0.50;;;16.40;52.00;;;;;;5035476;28;20033;-77
2023/10/21 13:02:47;;;;;;;2.20;0.60;;;16.50;52.20;;;;;;5053578;28;20478;-76
2023/10/21 13:05:13;;;;;;;0.77;0.43;;;16.60;51.80;;;;;;5053658;28;20036;-77
2023/10/21 13:07:39;;;;;;;0.52;0.40;;;16.60;51.40;;;;;;5053688;28;20025;-76
2023/10/21 13:10:09;;;;;;;0.65;0.43;;;16.50;51.20;;;;;;5053504;28;20029;-74
2023/10/21 13:12:38;;;;;;;2.88;0.65;;;16.30;51.80;;;;;;5053398;28;20108;-76
2023/10/21 13:15:09;;;;;;;1.42;0.52;;;16.10;52.60;;;;;;5053410;28;20025;-74
2023/10/21 13:17:35;;;;;;;2.30;0.77;;;16.00;53.00;;;;;;5053254;28;20052;-76
2023/10/21 13:20:00;;;;;;;1.30;0.50;;;15.90;53.40;;;;;;5053230;28;20153;-75
2023/10/21 13:22:26;;;;;;;1.73;0.68;;;15.90;53.30;;;;;;5052153;28;20064;-73
2023/10/21 13:24:52;;;;;;;1.67;1.10;;;15.90;53.60;;;;;;5051671;28;20166;-73
2023/10/21 13:27:17;;;;;;;1.95;0.80;;;16.10;53.80;;;;;;5053253;28;20099;-73
2023/10/21 13:29:43;;;;;;;1.30;0.60;;;16.30;53.20;;;;;;5053118;28;20465;-72